createdAt,value
2022-10-16T00:00:02.718Z,12.47
2022-10-16T00:03:04.225Z,12.46
2022-10-16T00:06:05.828Z,12.46
2022-10-16T00:09:07.280Z,12.44
2022-10-16T00:12:08.820Z,12.41
2022-10-16T00:15:10.273Z,12.43
2022-10-16T00:18:11.614Z,12.44
2022-10-16T00:21:17.242Z,12.48
2022-10-16T00:24:18.660Z,12.49
2022-10-16T00:27:20.075Z,12.49
2022-10-16T00:30:21.468Z,12.44
2022-10-16T00:33:22.948Z,12.44
2022-10-16T00:36:24.865Z,12.40
2022-10-16T00:39:26.820Z,12.44
2022-10-16T00:42:28.548Z,12.45
2022-10-16T00:45:30.050Z,12.41
2022-10-16T00:48:31.395Z,12.44
2022-10-16T00:51:34.070Z,12.43
2022-10-16T00:54:35.457Z,12.46
2022-10-16T00:57:37.027Z,12.45
2022-10-16T01:00:38.682Z,12.45
2022-10-16T01:03:40.050Z,12.45
2022-10-16T01:06:47.678Z,12.44
2022-10-16T01:09:51.998Z,12.39
2022-10-16T01:12:53.322Z,12.38
2022-10-16T01:16:14.921Z,12.43
2022-10-16T01:19:39.524Z,12.45
2022-10-16T01:22:56.220Z,12.45
2022-10-16T01:25:57.513Z,12.45
2022-10-16T01:29:09.895Z,12.41
2022-10-16T01:32:19.038Z,12.45
2022-10-16T01:35:22.265Z,12.44
2022-10-16T01:38:27.781Z,12.39
2022-10-16T01:41:31.351Z,12.41
2022-10-16T01:44:33.376Z,12.38
2022-10-16T01:47:34.704Z,12.38
2022-10-16T01:50:36.747Z,12.38
2022-10-16T01:53:38.153Z,12.38
2022-10-16T01:56:39.494Z,12.38
2022-10-16T01:59:43.270Z,12.36
2022-10-16T02:02:45.649Z,12.33
2022-10-16T02:05:51.589Z,12.25
2022-10-16T02:08:52.967Z,12.24
2022-10-16T02:11:54.849Z,12.28
2022-10-16T02:14:56.247Z,12.25
2022-10-16T02:17:57.623Z,12.28
2022-10-16T02:21:00.452Z,12.23
2022-10-16T02:24:14.134Z,12.22
2022-10-16T02:27:20.300Z,12.20
2022-10-16T02:30:35.036Z,12.18
2022-10-16T02:33:37.284Z,12.14
2022-10-16T02:36:38.642Z,12.11
2022-10-16T02:39:40.006Z,12.12
2022-10-16T02:42:41.446Z,12.08
2022-10-16T02:45:42.830Z,12.09
2022-10-16T02:48:44.206Z,12.12
2022-10-16T02:51:45.525Z,12.13
2022-10-16T02:54:46.927Z,12.12
2022-10-16T02:57:48.670Z,12.09
2022-10-16T03:00:50.067Z,12.07
2022-10-16T03:03:51.489Z,12.06
2022-10-16T03:06:52.876Z,12.05
2022-10-16T03:09:55.531Z,12.05
2022-10-16T03:12:56.855Z,12.04
2022-10-16T03:15:58.199Z,12.06
2022-10-16T03:18:59.557Z,12.06
2022-10-16T03:22:00.915Z,12.05
2022-10-16T03:25:02.288Z,12.02
2022-10-16T03:28:04.177Z,12.01
2022-10-16T03:31:05.561Z,11.99
2022-10-16T03:34:06.980Z,12.00
2022-10-16T03:37:08.329Z,12.02
2022-10-16T03:40:09.842Z,12.03
2022-10-16T03:43:11.460Z,12.01
2022-10-16T03:46:12.863Z,11.99
2022-10-16T03:49:14.232Z,11.97
2022-10-16T03:52:15.635Z,11.96
2022-10-16T03:55:17.062Z,12.00
2022-10-16T03:58:18.424Z,11.99
2022-10-16T04:01:19.814Z,11.96
2022-10-16T04:04:21.259Z,11.99
2022-10-16T04:07:22.927Z,11.97
2022-10-16T04:10:24.463Z,11.94
2022-10-16T04:13:25.834Z,11.92
2022-10-16T04:16:27.176Z,11.89
2022-10-16T04:19:28.514Z,11.84
2022-10-16T04:22:29.851Z,11.81
2022-10-16T04:25:31.261Z,11.77
2022-10-16T04:28:32.664Z,11.74
2022-10-16T04:31:34.265Z,11.72
2022-10-16T04:34:35.722Z,11.72
2022-10-16T04:37:37.080Z,11.69
2022-10-16T04:40:38.499Z,11.65
2022-10-16T04:43:39.853Z,11.64
2022-10-16T04:46:41.222Z,11.58
2022-10-16T04:49:42.626Z,11.58
2022-10-16T04:52:43.955Z,11.58
2022-10-16T04:55:45.443Z,11.58
2022-10-16T04:58:46.781Z,11.58
2022-10-16T05:01:48.222Z,11.57
2022-10-16T05:04:49.633Z,11.58
2022-10-16T05:07:51.089Z,11.57
2022-10-16T05:10:52.493Z,11.57
2022-10-16T05:13:55.832Z,11.58
2022-10-16T05:16:57.420Z,11.58
2022-10-16T05:19:58.759Z,11.57
2022-10-16T05:23:00.198Z,11.56
2022-10-16T05:26:01.654Z,11.49
2022-10-16T05:29:04.037Z,11.52
2022-10-16T05:32:05.432Z,11.51
2022-10-16T05:35:10.086Z,11.52
2022-10-16T05:38:13.970Z,11.51
2022-10-16T05:41:15.389Z,11.52
2022-10-16T05:44:16.832Z,11.53
2022-10-16T05:47:18.196Z,11.57
2022-10-16T05:50:19.538Z,11.58
2022-10-16T05:53:26.390Z,11.65
2022-10-16T05:56:27.791Z,11.67
2022-10-16T05:59:29.310Z,11.64
2022-10-16T06:02:30.666Z,11.64
2022-10-16T06:05:32.009Z,11.64
2022-10-16T06:08:33.363Z,11.67
2022-10-16T06:11:34.815Z,11.67
2022-10-16T06:14:36.265Z,11.70
2022-10-16T06:17:37.668Z,11.72
2022-10-16T06:20:39.101Z,11.80
2022-10-16T06:23:40.523Z,11.80
2022-10-16T06:26:41.874Z,11.81
2022-10-16T06:29:44.125Z,11.83
2022-10-16T06:32:45.554Z,11.85
2022-10-16T06:35:46.908Z,11.86
2022-10-16T06:38:48.252Z,11.88
2022-10-16T06:41:49.981Z,11.89
2022-10-16T06:44:51.445Z,11.95
2022-10-16T06:47:52.770Z,11.95
2022-10-16T06:50:57.656Z,11.99
2022-10-16T06:54:03.773Z,12.06
2022-10-16T06:57:05.602Z,12.10
2022-10-16T07:00:07.154Z,12.10
2022-10-16T07:03:08.502Z,12.12
2022-10-16T07:06:10.210Z,12.18
2022-10-16T07:09:11.622Z,12.26
2022-10-16T07:12:13.006Z,12.28
2022-10-16T07:15:14.490Z,12.33
2022-10-16T07:18:15.830Z,12.39
2022-10-16T07:21:18.018Z,12.46
2022-10-16T07:24:19.415Z,12.52
2022-10-16T07:27:23.178Z,12.53
2022-10-16T07:30:24.534Z,12.54
2022-10-16T07:33:25.866Z,12.57
2022-10-16T07:36:27.217Z,12.62
2022-10-16T07:39:28.561Z,12.65
2022-10-16T07:42:29.941Z,12.68
2022-10-16T07:45:31.303Z,12.70
2022-10-16T07:48:33.066Z,12.70
2022-10-16T07:51:34.495Z,12.70
2022-10-16T07:54:35.850Z,12.74
2022-10-16T07:57:37.203Z,12.78
2022-10-16T08:00:38.644Z,12.84
2022-10-16T08:03:42.493Z,12.93
2022-10-16T08:06:44.047Z,12.98
2022-10-16T08:09:45.383Z,13.07
2022-10-16T08:12:46.795Z,13.16
2022-10-16T08:15:48.143Z,13.30
2022-10-16T08:18:49.887Z,13.47
2022-10-16T08:21:51.223Z,13.53
2022-10-16T08:24:52.568Z,13.80
2022-10-16T08:27:54.012Z,14.18
2022-10-16T08:30:57.418Z,14.27
2022-10-16T08:33:58.842Z,15.66
2022-10-16T08:37:00.175Z,16.35
2022-10-16T08:40:01.554Z,17.32
2022-10-16T08:43:18.153Z,17.61
2022-10-16T08:46:28.214Z,18.35
2022-10-16T08:49:29.613Z,17.51
2022-10-16T08:52:31.785Z,17.00
2022-10-16T08:55:40.772Z,17.71
2022-10-16T08:58:42.143Z,17.89
2022-10-16T09:01:46.856Z,20.00
2022-10-16T09:04:56.294Z,19.82
2022-10-16T09:08:13.659Z,19.35
2022-10-16T09:11:21.242Z,21.23
2022-10-16T09:14:38.173Z,23.28
2022-10-16T09:17:46.891Z,23.16
2022-10-16T09:20:57.914Z,23.24
2022-10-16T09:24:09.315Z,24.33
2022-10-16T09:27:14.190Z,24.51
2022-10-16T09:30:16.893Z,25.23
2022-10-16T09:33:19.260Z,25.07
2022-10-16T09:36:20.641Z,24.35
2022-10-16T09:39:21.989Z,24.53
2022-10-16T09:42:23.286Z,24.44
2022-10-16T09:45:24.830Z,23.83
2022-10-16T09:48:27.734Z,22.64
2022-10-16T09:51:30.037Z,21.86
2022-10-16T09:54:31.404Z,21.33
2022-10-16T09:57:32.828Z,21.04
2022-10-16T10:00:34.197Z,20.77
2022-10-16T10:03:39.320Z,20.54
2022-10-16T10:06:49.908Z,20.37
2022-10-16T10:09:51.247Z,20.23
2022-10-16T10:12:52.653Z,20.08
2022-10-16T10:15:53.995Z,19.75
2022-10-16T10:19:01.694Z,19.62
2022-10-16T10:22:03.102Z,19.52
2022-10-16T10:25:04.521Z,19.49
2022-10-16T10:28:05.840Z,20.09
2022-10-16T10:31:19.339Z,22.13
2022-10-16T10:34:39.175Z,23.59
2022-10-16T10:37:59.619Z,23.66
2022-10-16T10:41:19.232Z,24.12
2022-10-16T10:44:24.325Z,23.81
2022-10-16T10:47:28.472Z,23.66
2022-10-16T10:50:32.825Z,24.11
2022-10-16T10:53:43.323Z,23.60
2022-10-16T10:57:03.467Z,24.70
2022-10-16T11:00:07.724Z,24.99
2022-10-16T11:03:24.235Z,26.27
2022-10-16T11:06:27.557Z,25.74
2022-10-16T11:09:29.497Z,24.92
2022-10-16T11:12:31.447Z,25.05
2022-10-16T11:15:33.705Z,24.39
2022-10-16T11:18:59.015Z,24.88
2022-10-16T11:22:18.658Z,23.50
2022-10-16T11:25:19.966Z,23.20
2022-10-16T11:28:21.486Z,23.24
2022-10-16T11:31:25.700Z,22.89
2022-10-16T11:34:30.789Z,23.18
2022-10-16T11:37:35.301Z,22.78
2022-10-16T11:40:38.421Z,22.64
2022-10-16T11:43:40.582Z,22.61
2022-10-16T11:46:58.297Z,23.27
2022-10-16T11:50:05.844Z,23.95
2022-10-16T11:53:22.951Z,23.13
2022-10-16T11:56:24.530Z,23.49
2022-10-16T11:59:28.898Z,22.95
2022-10-16T12:02:30.379Z,23.33
2022-10-16T12:05:53.846Z,24.31
2022-10-16T12:08:55.268Z,24.29
2022-10-16T12:11:56.626Z,23.51
2022-10-16T12:15:22.290Z,23.64
2022-10-16T12:18:27.358Z,23.42
2022-10-16T12:21:31.017Z,23.94
2022-10-16T12:24:37.269Z,23.44
2022-10-16T12:27:38.710Z,23.89
2022-10-16T12:30:40.829Z,23.79
2022-10-16T12:33:43.139Z,22.72
2022-10-16T12:36:44.476Z,22.36
2022-10-16T12:39:45.987Z,22.03
2022-10-16T12:42:47.357Z,21.88
2022-10-16T12:45:48.700Z,21.67
2022-10-16T12:49:06.014Z,21.31
2022-10-16T12:52:24.503Z,21.34
2022-10-16T12:55:26.109Z,21.34
2022-10-16T12:58:30.552Z,21.31
2022-10-16T13:01:41.294Z,21.23
2022-10-16T13:04:45.744Z,21.22
2022-10-16T13:07:47.257Z,21.18
2022-10-16T13:10:57.464Z,21.04
2022-10-16T13:13:58.745Z,20.91
2022-10-16T13:17:04.063Z,21.07
2022-10-16T13:20:11.586Z,21.11
2022-10-16T13:23:16.743Z,21.49
2022-10-16T13:26:23.885Z,21.83
2022-10-16T13:29:25.399Z,22.22
2022-10-16T13:32:26.977Z,22.12
2022-10-16T13:35:29.203Z,22.75
2022-10-16T13:38:33.036Z,22.86
2022-10-16T13:41:34.348Z,23.53
2022-10-16T13:44:43.582Z,25.04
2022-10-16T13:47:44.928Z,25.85
2022-10-16T13:50:46.241Z,25.91
2022-10-16T13:53:47.612Z,25.33
2022-10-16T13:56:57.791Z,25.90
2022-10-16T14:00:04.467Z,25.81
2022-10-16T14:03:06.611Z,25.06
2022-10-16T14:06:10.116Z,24.45
2022-10-16T14:09:27.548Z,23.65
2022-10-16T14:12:29.013Z,23.19
2022-10-16T14:15:31.556Z,23.99
2022-10-16T14:18:33.529Z,24.82
2022-10-16T14:21:37.137Z,24.67
2022-10-16T14:24:38.471Z,24.84
2022-10-16T14:27:39.803Z,25.02
2022-10-16T14:30:50.143Z,23.90
2022-10-16T14:33:51.589Z,23.56
2022-10-16T14:36:52.970Z,22.75
2022-10-16T14:39:54.402Z,22.47
2022-10-16T14:42:55.860Z,22.37
2022-10-16T14:45:57.208Z,21.98
2022-10-16T14:49:19.174Z,20.97
2022-10-16T14:52:20.534Z,20.79
2022-10-16T14:55:21.931Z,20.83
2022-10-16T14:58:23.505Z,20.61
2022-10-16T15:01:24.817Z,20.38
2022-10-16T15:04:26.211Z,20.22
2022-10-16T15:07:27.874Z,19.96
2022-10-16T15:10:29.538Z,19.71
2022-10-16T15:13:30.878Z,19.43
2022-10-16T15:16:32.428Z,19.21
2022-10-16T15:19:35.045Z,19.13
2022-10-16T15:22:36.407Z,18.92
2022-10-16T15:25:38.615Z,18.87
2022-10-16T15:28:40.177Z,18.72
2022-10-16T15:31:43.643Z,18.57
2022-10-16T15:34:45.035Z,18.47
2022-10-16T15:37:47.316Z,18.21
2022-10-16T15:40:48.944Z,17.94
2022-10-16T15:43:50.770Z,17.75
2022-10-16T15:46:52.211Z,17.75
2022-10-16T15:49:53.594Z,17.60
2022-10-16T15:52:54.928Z,17.44
2022-10-16T15:55:56.334Z,17.37
2022-10-16T15:58:59.279Z,17.31
2022-10-16T16:02:00.733Z,17.15
2022-10-16T16:05:03.107Z,17.05
2022-10-16T16:08:04.558Z,16.92
2022-10-16T16:11:06.840Z,16.88
2022-10-16T16:14:08.283Z,16.81
2022-10-16T16:17:09.598Z,16.62
2022-10-16T16:20:11.133Z,16.41
2022-10-16T16:23:12.487Z,16.40
2022-10-16T16:26:13.798Z,16.34
2022-10-16T16:29:15.552Z,16.31
2022-10-16T16:32:16.921Z,16.20
2022-10-16T16:35:18.267Z,16.17
2022-10-16T16:38:19.616Z,16.02
2022-10-16T16:41:22.360Z,15.94
2022-10-16T16:44:23.785Z,15.85
2022-10-16T16:47:25.389Z,15.76
2022-10-16T16:50:26.975Z,15.70
2022-10-16T16:53:28.397Z,15.59
2022-10-16T16:56:29.770Z,15.51
2022-10-16T16:59:33.596Z,15.42
2022-10-16T17:02:34.946Z,15.31
2022-10-16T17:05:36.286Z,15.22
2022-10-16T17:08:37.700Z,15.15
2022-10-16T17:11:39.053Z,15.06
2022-10-16T17:14:40.404Z,14.90
2022-10-16T17:17:41.829Z,14.90
2022-10-16T17:20:43.457Z,14.87
2022-10-16T17:23:44.915Z,14.67
2022-10-16T17:26:49.081Z,14.59
2022-10-16T17:29:51.106Z,14.59
2022-10-16T17:32:52.460Z,14.50
2022-10-16T17:35:53.800Z,14.39
2022-10-16T17:38:55.202Z,14.35
2022-10-16T17:41:56.709Z,14.31
2022-10-16T17:44:58.112Z,14.27
2022-10-16T17:48:00.040Z,14.25
2022-10-16T17:51:03.636Z,14.16
2022-10-16T17:54:05.255Z,14.09
2022-10-16T17:57:06.572Z,14.02
2022-10-16T18:00:08.194Z,13.92
2022-10-16T18:03:09.552Z,13.86
2022-10-16T18:06:13.434Z,13.79
2022-10-16T18:09:15.888Z,13.74
2022-10-16T18:12:17.261Z,13.67
2022-10-16T18:15:18.683Z,13.63
2022-10-16T18:18:20.122Z,13.59
2022-10-16T18:21:21.468Z,13.51
2022-10-16T18:24:25.087Z,13.44
2022-10-16T18:27:26.699Z,13.40
2022-10-16T18:30:28.336Z,13.31
2022-10-16T18:33:32.682Z,13.28
2022-10-16T18:36:34.357Z,13.21
2022-10-16T18:39:35.750Z,13.18
2022-10-16T18:42:37.154Z,13.13
2022-10-16T18:45:38.557Z,13.11
2022-10-16T18:48:40.186Z,13.11
2022-10-16T18:51:42.277Z,13.07
2022-10-16T18:54:43.628Z,13.03
2022-10-16T18:57:45.006Z,12.98
2022-10-16T19:00:46.335Z,12.98
2022-10-16T19:03:48.148Z,12.89
2022-10-16T19:06:50.138Z,12.87
2022-10-16T19:09:51.496Z,12.80
2022-10-16T19:12:52.877Z,12.75
2022-10-16T19:15:58.473Z,12.73
2022-10-16T19:19:00.633Z,12.70
2022-10-16T19:22:11.806Z,12.68
2022-10-16T19:25:13.152Z,12.68
2022-10-16T19:28:14.515Z,12.64
2022-10-16T19:31:16.759Z,12.66
2022-10-16T19:34:18.130Z,12.63
2022-10-16T19:37:25.712Z,12.61
2022-10-16T19:40:27.371Z,12.58
2022-10-16T19:43:28.713Z,12.54
2022-10-16T19:46:30.069Z,12.43
2022-10-16T19:49:31.493Z,12.31
2022-10-16T19:52:33.195Z,12.28
2022-10-16T19:55:34.546Z,12.24
2022-10-16T19:58:35.891Z,12.24
2022-10-16T20:01:37.264Z,12.28
2022-10-16T20:04:38.744Z,12.19
2022-10-16T20:07:40.127Z,12.14
2022-10-16T20:10:47.657Z,12.07
2022-10-16T20:13:49.020Z,12.02
2022-10-16T20:16:50.351Z,12.01
2022-10-16T20:19:51.746Z,12.00
2022-10-16T20:22:53.086Z,11.99
2022-10-16T20:25:54.791Z,11.94
2022-10-16T20:28:56.324Z,11.90
2022-10-16T20:31:57.729Z,11.91
2022-10-16T20:35:00.318Z,11.88
2022-10-16T20:38:04.433Z,11.86
2022-10-16T20:41:07.178Z,11.75
2022-10-16T20:44:08.708Z,11.73
2022-10-16T20:47:10.028Z,11.71
2022-10-16T20:50:12.172Z,11.71
2022-10-16T20:53:13.541Z,11.68
2022-10-16T20:56:15.896Z,11.67
2022-10-16T20:59:17.314Z,11.66
2022-10-16T21:02:18.846Z,11.66
2022-10-16T21:05:20.340Z,11.60
2022-10-16T21:08:21.703Z,11.60
2022-10-16T21:11:24.022Z,11.57
2022-10-16T21:14:25.447Z,11.51
2022-10-16T21:17:26.826Z,11.48
2022-10-16T21:20:28.194Z,11.46
2022-10-16T21:23:30.878Z,11.46
2022-10-16T21:26:32.299Z,11.46
2022-10-16T21:29:33.735Z,11.44
2022-10-16T21:32:35.687Z,11.35
2022-10-16T21:35:37.348Z,11.30
2022-10-16T21:38:38.747Z,11.26
2022-10-16T21:41:40.375Z,11.22
2022-10-16T21:44:41.733Z,11.20
2022-10-16T21:47:43.122Z,11.18
2022-10-16T21:50:47.688Z,11.15
2022-10-16T21:53:49.045Z,11.13
2022-10-16T21:56:50.575Z,11.09
2022-10-16T21:59:51.990Z,11.11
2022-10-16T22:02:53.530Z,11.09
2022-10-16T22:05:54.889Z,11.01
2022-10-16T22:08:59.915Z,10.98
2022-10-16T22:12:01.272Z,10.95
2022-10-16T22:15:02.638Z,10.90
2022-10-16T22:18:04.022Z,10.92
2022-10-16T22:21:06.099Z,10.92
2022-10-16T22:24:07.797Z,10.87
2022-10-16T22:27:09.148Z,10.78
2022-10-16T22:30:10.740Z,10.77
2022-10-16T22:33:12.319Z,10.74
2022-10-16T22:36:13.959Z,10.74
2022-10-16T22:39:15.351Z,10.72
2022-10-16T22:42:16.669Z,10.73
2022-10-16T22:45:17.996Z,10.69
2022-10-16T22:48:20.988Z,10.63
2022-10-16T22:51:22.386Z,10.57
2022-10-16T22:54:23.767Z,10.53
2022-10-16T22:57:25.097Z,10.57
2022-10-16T23:00:26.446Z,10.55
2022-10-16T23:03:27.858Z,10.52
2022-10-16T23:06:29.328Z,10.49
2022-10-16T23:09:30.744Z,10.46
2022-10-16T23:12:32.116Z,10.42
2022-10-16T23:15:33.466Z,10.42
2022-10-16T23:18:34.859Z,10.40
2022-10-16T23:21:36.276Z,10.37
2022-10-16T23:24:37.607Z,10.34
2022-10-16T23:27:38.954Z,10.38
2022-10-16T23:30:40.310Z,10.35
2022-10-16T23:33:41.727Z,10.35
2022-10-16T23:36:44.687Z,10.36
2022-10-16T23:39:46.041Z,10.38
2022-10-16T23:42:47.427Z,10.36
2022-10-16T23:45:48.784Z,10.34
2022-10-16T23:48:50.122Z,10.27
2022-10-16T23:51:51.577Z,10.22
2022-10-16T23:54:53.070Z,10.19
2022-10-16T23:57:54.412Z,10.18
